Flight Track Log - Related Links

Times and Time Zones

All times are in EDT time to prevent confusion due to time zone crossing. See the N498QS flight status page for this flight to view local times or setup timezone preferences in your user account.

Time Position Orientation Groundspeed Altitude Reporting Facility
EDT Latitude Longitude Course Direction KTS MPH feet Rate Location/Type
Mon 03:56:19 PM 40.7000 -73.4333 201° Southwest 210 242 1,500  Level New York TRACON
Mon 03:57:19 PM 40.6333 -73.4667 201° Southwest 233 268 3,200 1,400 Climbing New York TRACON
Mon 03:58:19 PM 40.6333 -73.5500 270° West 250 288 4,300 2,050 Climbing New York TRACON
Mon 03:59:19 PM 40.6000 -73.6333 242° Southwest 245 282 7,300 3,000 Climbing New York TRACON
Mon 04:00:19 PM 40.6000 -73.7167 270° West 268 308 10,300 1,850 Climbing New York TRACON
Mon 04:01:19 PM 40.6333 -73.8333 291° West 429 494 11,000 350 Climbing New York TRACON
Mon 04:02:19 PM 40.5500 -73.9000 211° Southwest 307 353 11,000  Level New York TRACON
Mon 04:03:19 PM 40.4833 -73.9500 210° Southwest 287 330 11,000  Level New York TRACON
Mon 04:04:19 PM 40.4167 -74.0000 210° Southwest 292 336 11,000 50 Level New York TRACON
Mon 04:05:19 PM 40.3500 -74.0500 210° Southwest 301 346 11,100 1,350 Climbing New York TRACON
Mon 04:06:19 PM 40.3292 -74.1742 258° West 344 396 13,700 2,974 Climbing New York Center
Mon 04:07:16 PM 40.3011 -74.2817 251° West 329 379 16,900 1,627 Climbing New York Center
Mon 04:08:17 PM 40.2558 -74.3989 243° Southwest 353 406 16,900  Level New York Center
Mon 04:09:18 PM 40.2481 -74.5156 265° West 359 413 16,900 595 Level New York Center
Mon 04:10:18 PM 40.2683 -74.6608 280° West 371 427 18,100 1,077 Climbing New York Center
Mon 04:11:15 PM 40.2844 -74.7978 279° West 377 434 19,000 458 Climbing New York Center
Mon 04:12:16 PM 40.3008 -74.9267 280° West 372 428 19,000  Level New York Center
Mon 04:13:16 PM 40.2981 -75.0625 269° West 372 428 19,000  Level New York Center
Mon 04:14:17 PM 40.2786 -75.1975 259° West 372 428 19,000  Level New York Center
Mon 04:15:17 PM 40.2614 -75.3186 259° West 372 428 19,000  Level New York Center
Mon 04:16:17 PM 40.2436 -75.4536 260° West 372 428 19,000  Level New York Center
Mon 04:17:18 PM 40.2233 -75.5961 259° West 367 422 19,000  Level New York Center
Mon 04:18:16 PM 40.1928 -75.7272 253° West 378 435 19,000  Level New York Center
Mon 04:19:16 PM 40.1631 -75.8419 251° West 378 435 19,000  Level New York Center
Mon 04:20:18 PM 40.1322 -75.9728 253° West 373 429 19,000 -393 Level New York Center
Mon 04:21:18 PM 40.0967 -76.1139 252° West 378 435 18,200 -1,160 Descending New York Center
Mon 04:22:17 PM 40.0636 -76.2444 252° West 378 435 16,700 -1,513 Descending New York Center
Mon 04:23:17 PM 40.0328 -76.3667 252° West 373 429 15,200 -580 Descending New York Center
Mon 04:25:13 PM 39.9667 -76.6167 251° West 363 418 15,000 -71 Descending Potomac TRACON
Mon 04:26:07 PM 39.9333 -76.7000 242° Southwest 364 419 15,000  Level Potomac TRACON
Mon 04:27:08 PM 39.8833 -76.8167 241° Southwest 363 418 15,000  Level Potomac TRACON
Mon 04:28:08 PM 39.8167 -76.9333 233° Southwest 362 417 15,000 -500 Level Potomac TRACON
Mon 04:29:08 PM 39.7667 -77.0333 237° Southwest 360 414 14,000 -1,250 Descending Potomac TRACON
Mon 04:30:08 PM 39.7167 -77.1500 241° Southwest 352 405 12,500 -1,400 Descending Potomac TRACON
Mon 04:31:08 PM 39.6667 -77.2500 237° Southwest 317 365 11,200 -1,240 Descending Potomac TRACON
Mon 04:32:09 PM 39.6333 -77.3167 237° Southwest 269 310 10,000 -1,304 Descending Potomac TRACON
Mon 04:33:03 PM 39.6000 -77.4000 243° Southwest 251 289 8,700 -1,409 Descending Potomac TRACON
Mon 04:34:04 PM 39.5333 -77.4167 191° South 240 276 7,300 -1,339 Descending Potomac TRACON
Mon 04:35:04 PM 39.4667 -77.4333 191° South 229 264 6,000 -1,350 Descending Potomac TRACON
Mon 04:36:04 PM 39.4000 -77.4333 180° South 220 253 4,600 -1,000 Descending Potomac TRACON
Mon 04:37:04 PM 39.3500 -77.4333 180° South 221 254 4,000 -300 Descending Potomac TRACON
Mon 04:38:04 PM 39.2833 -77.4333 180° South 225 259 4,000 -200 Level Potomac TRACON
Mon 04:39:04 PM 39.2167 -77.4333 180° South 214 246 3,600 -500 Descending Potomac TRACON
Mon 04:40:04 PM 39.1667 -77.4333 180° South 208 239 3,000 -298 Descending Potomac TRACON
Mon 04:41:05 PM 39.1167 -77.4333 180° South 156 180 3,000 -198 Level Potomac TRACON
Mon 04:42:05 PM 39.0667 -77.4333 180° South 138 159 2,600 -526 Descending Potomac TRACON
Mon 04:42:59 PM 39.0333 -77.4333 180° South 135 155 2,000 -684 Descending Potomac TRACON
Mon 04:43:59 PM 39.0000 -77.4333 180° South 137 158 1,300 -750 Descending Potomac TRACON
Mon 04:44:59 PM 38.9667 -77.4333 180° South 140 161 500 -800 Descending Potomac TRACON
Mon 04:47:00 PM 38.9474 -77.4599 180° South  Level Estimated

Login

Don't have an account? Register now (free) for customized features, flight alerts, and more!